DW6801 Kvistgard DK current weather conditions

sailwx.info

Wind from 233 at 12 knots gusting 22

Air temperature 6.7° C
Dewpoint 4.2° C

Last reported at 2020-Feb-21 17:00 UTC.
Time now 2020-Feb-21 18:06 UTC

Location: N 55°59' E 012°30'.
View on Google Maps.

See reports from other nearby stations

  
Tides and Currents Weather Stations Pressure Air Temp Water Temp Dewpoint Dewpoint Depression Visibility Wind Speed Wind Dir Waves Ship Positions
date/time (UTC)wind fromknots sea level pressurealtimeterstation pressurevisibilityair tempwater tempwave heightnotes
2020-Feb-21 17:00 233 12 gusting 22 6.7
2020-Feb-21 16:51 230 10 gusting 19 6.7
2020-Feb-21 16:42 227 9 gusting 19 6.7
2020-Feb-21 16:33 223 8 gusting 15 6.7
2020-Feb-21 16:24 223 8 gusting 16 6.7
2020-Feb-21 16:15 229 8 gusting 14 6.7
2020-Feb-21 16:06 230 10 gusting 19 6.7
2020-Feb-21 15:57 229 10 gusting 18 6.7
2020-Feb-21 15:48 230 10 gusting 18 6.7
2020-Feb-21 15:39 236 11 gusting 18 7.2
2020-Feb-21 15:30 237 12 gusting 20 7.2
2020-Feb-21 15:21 236 11 gusting 20 7.2
2020-Feb-21 15:12 240 13 gusting 21 7.2
2020-Feb-21 15:03 241 13 gusting 23 7.2
2020-Feb-21 14:54 240 13 gusting 23 7.2
2020-Feb-21 14:45 239 13 gusting 22 7.2
2020-Feb-21 14:36 236 13 gusting 23 7.2
2020-Feb-21 14:27 242 13 gusting 20 7.2
2020-Feb-21 14:18 247 14 gusting 28 7.8
2020-Feb-21 14:09 245 17 gusting 28 7.8
2020-Feb-21 14:00 245 15 gusting 28 7.8
2020-Feb-21 13:51 242 13 gusting 23 8.3
2020-Feb-21 13:42 246 16 gusting 27 7.8
2020-Feb-21 13:33 244 14 gusting 21 8.3
2020-Feb-21 13:24 249 13 gusting 28 8.3
2020-Feb-21 13:15 247 11 gusting 19 7.8
2020-Feb-21 13:06 247 11 gusting 19 7.8
2020-Feb-21 12:57 246 12 gusting 21 7.8
2020-Feb-21 12:48 246 13 gusting 23 7.8
2020-Feb-21 12:39 250 16 gusting 30 7.8
2020-Feb-21 12:30 250 16 gusting 29 7.8
2020-Feb-21 12:21 249 15 gusting 27 7.8
2020-Feb-21 12:12 247 13 gusting 24 7.2
2020-Feb-21 12:03 244 12 gusting 19 7.8
2020-Feb-21 11:54 247 13 gusting 21 7.8
2020-Feb-21 11:45 245 14 gusting 24 7.8
2020-Feb-21 11:36 247 14 gusting 23 7.8
2020-Feb-21 11:27 249 12 gusting 22 7.8
2020-Feb-21 11:18 254 13 gusting 22 7.8
2020-Feb-21 11:09 250 14 gusting 24 7.8
2020-Feb-21 11:00 245 14 gusting 23 7.2
2020-Feb-21 10:51 253 15 gusting 27 7.2
2020-Feb-21 10:42 249 16 gusting 28 7.2
2020-Feb-21 10:33 250 14 gusting 27 7.2
2020-Feb-21 10:24 251 13 gusting 24 7.2
2020-Feb-21 10:15 248 13 gusting 24 7.2
2020-Feb-21 10:06 252 13 gusting 22 6.7
2020-Feb-21 09:57 250 12 gusting 21 6.7
2020-Feb-21 09:48 248 13 gusting 22 6.7
2020-Feb-21 09:39 252 12 gusting 17 6.7
2020-Feb-21 09:30 252 10 gusting 17 6.7
2020-Feb-21 09:21 251 11 gusting 19 6.7
2020-Feb-21 09:12 252 12 gusting 19 6.7
2020-Feb-21 09:03 254 12 gusting 19 6.1
2020-Feb-21 08:54 253 12 gusting 18 6.1
2020-Feb-21 08:45 250 10 gusting 15 6.1
2020-Feb-21 08:36 251 13 gusting 21 5.6
2020-Feb-21 08:27 249 13 gusting 21 5.6
2020-Feb-21 08:18 255 12 gusting 19 5.0
2020-Feb-21 08:09 252 11 gusting 18 5.0
2020-Feb-21 08:00 249 9 gusting 18 4.4
2020-Feb-21 07:51 256 11 gusting 22 4.4
2020-Feb-21 07:42 260 10 gusting 19 4.4
2020-Feb-21 07:33 257 11 gusting 19 4.4
2020-Feb-21 07:24 255 10 gusting 19 4.4
2020-Feb-21 07:15 252 10 gusting 18 3.9
2020-Feb-21 07:06 252 10 gusting 14 3.9
2020-Feb-21 06:57 250 10 gusting 16 3.9
2020-Feb-21 06:48 253 13 gusting 19 3.9
2020-Feb-21 06:39 252 12 gusting 20 3.9
2020-Feb-21 06:30 251 11 gusting 20 3.9
2020-Feb-21 06:21 253 10 gusting 16 3.9
2020-Feb-21 06:12 248 9 gusting 15 3.9
2020-Feb-21 06:03 249 9 gusting 15 3.9
2020-Feb-21 05:54 251 12 gusting 19 3.9
2020-Feb-21 05:45 250 12 gusting 22 3.9
2020-Feb-21 05:36 253 10 gusting 18 3.9
2020-Feb-21 05:27 253 10 gusting 17 3.9
2020-Feb-21 05:18 254 10 gusting 17 3.9
2020-Feb-21 05:09 254 10 gusting 19 3.9
2020-Feb-21 05:00 256 9 gusting 16 3.9
2020-Feb-21 04:51 258 10 gusting 17 3.9
2020-Feb-21 04:42 256 9 gusting 14 3.9
2020-Feb-21 04:33 256 9 gusting 14 3.9
2020-Feb-21 04:24 253 10 gusting 18 3.9
2020-Feb-21 04:15 260 9 gusting 17 3.9
2020-Feb-21 04:06 258 10 gusting 19 3.9
2020-Feb-21 03:57 261 9 gusting 18 3.9
2020-Feb-21 03:48 260 10 gusting 19 3.9
2020-Feb-21 03:39 259 10 gusting 19 3.9
2020-Feb-21 03:30 261 9 gusting 19 3.9
2020-Feb-21 03:21 259 9 gusting 19 3.9
2020-Feb-21 03:12 261 10 gusting 19 3.9
2020-Feb-21 03:03 264 10 gusting 21 3.9
2020-Feb-21 02:54 262 9 gusting 16 3.9
2020-Feb-21 02:45 259 9 gusting 16 3.9
2020-Feb-21 02:36 258 9 gusting 18 3.9
2020-Feb-21 02:27 266 10 gusting 17 3.9
2020-Feb-21 02:18 268 9 gusting 16 3.9
2020-Feb-21 02:09 267 9 gusting 16 4.4
2020-Feb-21 02:00 267 9 gusting 16 4.4
2020-Feb-21 01:51 261 9 gusting 19 4.4
2020-Feb-21 01:42 264 10 gusting 20 3.9
2020-Feb-21 01:33 269 9 gusting 16 3.9
2020-Feb-21 01:24 272 9 gusting 18 3.9
2020-Feb-21 01:15 272 10 gusting 18 4.4
2020-Feb-21 01:06 280 9 gusting 18 4.4
2020-Feb-21 00:57 283 9 gusting 16 4.4
2020-Feb-21 00:48 288 7 gusting 14 4.4
2020-Feb-21 00:39 291 7 gusting 17 4.4
2020-Feb-21 00:30 295 8 gusting 16 4.4
2020-Feb-21 00:21 297 8 gusting 17 4.4
2020-Feb-21 00:12 295 11 gusting 19 5.0
2020-Feb-21 00:03 256 10 gusting 22 6.1
2020-Feb-20 23:54 216 6 gusting 19 6.1
2020-Feb-20 23:45 206 6 gusting 13 6.1
2020-Feb-20 23:36 196 6 gusting 13 6.1
2020-Feb-20 23:27 188 6 gusting 20 6.1
2020-Feb-20 23:18 188 6 gusting 14 6.1
2020-Feb-20 23:09 194 6 gusting 13 6.1
2020-Feb-20 23:00 197 6 gusting 18 6.1
2020-Feb-20 22:51 192 6 gusting 15 6.1
2020-Feb-20 22:42 192 8 gusting 18 6.1
2020-Feb-20 22:33 184 8 gusting 19 6.1
2020-Feb-20 22:24 178 8 gusting 19 6.1
2020-Feb-20 22:15 173 9 gusting 18 6.1
2020-Feb-20 22:06 177 10 gusting 19 6.1
2020-Feb-20 21:57 172 12 gusting 22 6.1
2020-Feb-20 21:48 169 11 gusting 23 6.1
2020-Feb-20 21:39 174 11 gusting 24 6.1
2020-Feb-20 21:30 172 10 gusting 18 6.1
2020-Feb-20 21:21 166 9 gusting 19 6.1
2020-Feb-20 21:12 166 10 gusting 19 6.1
2020-Feb-20 21:03 172 11 gusting 19 6.1
2020-Feb-20 20:54 173 9 gusting 21 6.7
2020-Feb-20 20:45 174 9 gusting 17 6.7
2020-Feb-20 20:36 167 10 gusting 16 6.7
2020-Feb-20 20:27 170 10 gusting 19 6.7
2020-Feb-20 20:18 171 10 gusting 19 6.7
2020-Feb-20 20:09 174 8 gusting 19 6.7
2020-Feb-20 20:00 172 9 gusting 19 6.7
2020-Feb-20 19:51 168 9 gusting 16 6.7
2020-Feb-20 19:42 170 10 gusting 18 6.7
2020-Feb-20 19:33 168 10 gusting 20 6.7
2020-Feb-20 19:24 169 9 gusting 19 6.7
2020-Feb-20 19:15 170 9 gusting 19 6.7
2020-Feb-20 19:06 171 9 gusting 18 6.7
2020-Feb-20 18:57 169 10 gusting 18 6.7
2020-Feb-20 18:48 168 9 gusting 15 6.7
2020-Feb-20 18:39 171 9 gusting 17 6.7
2020-Feb-20 18:30 169 8 gusting 15 6.7
2020-Feb-20 18:21 171 10 gusting 19 6.7
2020-Feb-20 18:12 172 9 gusting 17 6.7
2020-Feb-20 18:03 168 8 gusting 15 6.7
2020-Feb-20 17:54 175 9 gusting 19 6.7
2020-Feb-20 17:45 176 7 gusting 13 6.7
2020-Feb-20 17:36 178 8 gusting 17 6.7
2020-Feb-20 17:27 178 8 gusting 18 6.7
2020-Feb-20 17:18 182 8 gusting 22 6.1
2020-Feb-20 17:09 187 7 gusting 18 6.1
2020-Feb-20 17:00 187 7 gusting 15 6.1
2020-Feb-20 16:50 178 7 gusting 19 6.1
2020-Feb-20 16:42 180 6 gusting 13 6.1
2020-Feb-20 16:32 178 6 gusting 19 6.1
2020-Feb-20 16:23 175 7 gusting 14 5.6
2020-Feb-20 16:15 174 8 gusting 13 5.6
2020-Feb-20 16:06 175 8 gusting 18 5.6
2020-Feb-20 15:57 178 7 gusting 15 5.6
2020-Feb-20 15:48 175 7 gusting 16 5.6
2020-Feb-20 15:38 176 7 gusting 16 5.6
2020-Feb-20 15:30 177 8 gusting 17 5.6
2020-Feb-20 15:21 169 8 gusting 19 5.0
2020-Feb-20 15:11 174 9 gusting 18 5.0
2020-Feb-20 15:02 176 9 gusting 19 5.0
2020-Feb-20 14:53 171 10 gusting 19 5.0
2020-Feb-20 14:45 174 9 gusting 22 5.0
2020-Feb-20 14:35 171 10 gusting 20 5.0
2020-Feb-20 14:26 172 10 gusting 20 5.0
2020-Feb-20 14:17 169 9 gusting 19 5.0
2020-Feb-20 14:08 170 9 gusting 19 5.0
2020-Feb-20 13:59 172 9 gusting 18 4.4
2020-Feb-20 13:50 172 10 gusting 19 4.4
2020-Feb-20 13:41 169 8 gusting 15 4.4
2020-Feb-20 13:33 168 8 gusting 19 4.4
2020-Feb-20 13:24 165 7 gusting 13 4.4
2020-Feb-20 13:14 165 9 gusting 16 4.4
2020-Feb-20 13:05 163 10 gusting 19 4.4
2020-Feb-20 12:56 166 9 gusting 16 4.4
2020-Feb-20 12:47 166 9 gusting 17 4.4
2020-Feb-20 12:39 167 9 gusting 16 4.4
2020-Feb-20 12:29 163 10 gusting 20 4.4
2020-Feb-20 12:21 165 8 gusting 18 4.4
2020-Feb-20 12:12 165 9 gusting 18 4.4
2020-Feb-20 12:02 164 8 gusting 18 4.4
2020-Feb-20 11:53 164 9 gusting 18 3.9
2020-Feb-20 11:45 163 10 gusting 17 3.9
2020-Feb-20 11:35 163 9 gusting 19 3.9
2020-Feb-20 11:27 163 8 gusting 19 3.9
2020-Feb-20 11:17 162 8 gusting 13 3.9
2020-Feb-20 11:08 159 7 gusting 13 3.9
2020-Feb-20 10:59 160 10 gusting 19 3.9
2020-Feb-20 10:50 162 9 gusting 19 3.9
2020-Feb-20 10:41 156 9 gusting 18 4.4
2020-Feb-20 10:32 158 10 gusting 17 4.4
2020-Feb-20 10:23 154 9 gusting 14 4.4
2020-Feb-20 10:15 156 10 gusting 15 4.4
2020-Feb-20 10:05 162 9 gusting 18 4.4
2020-Feb-20 09:56 159 10 gusting 19 4.4
2020-Feb-20 09:47 159 10 gusting 19 4.4
2020-Feb-20 09:39 155 9 gusting 16 4.4
2020-Feb-20 09:30 158 10 gusting 17 4.4
2020-Feb-20 09:20 160 10 gusting 19 4.4
2020-Feb-20 09:11 159 9 gusting 17 4.4
2020-Feb-20 09:02 150 9 gusting 15 3.9
2020-Feb-20 08:53 153 7 gusting 13 3.9
2020-Feb-20 08:45 161 7 gusting 12 3.9
2020-Feb-20 08:35 158 6 gusting 12 3.3
2020-Feb-20 08:26 155 6 gusting 13 3.3
2020-Feb-20 08:17 159 6 gusting 13 3.3
2020-Feb-20 08:08 160 6 gusting 13 3.3
2020-Feb-20 07:59 158 6 gusting 11 2.8
2020-Feb-20 07:51 160 6 gusting 11 2.8
2020-Feb-20 07:41 161 6 gusting 11 2.8
2020-Feb-20 07:32 167 6 gusting 13 2.8
2020-Feb-20 07:24 169 6 gusting 12 2.8
2020-Feb-20 07:15 167 6 gusting 12 2.2
2020-Feb-20 07:05 165 6 gusting 11 2.2
2020-Feb-20 06:56 166 6 gusting 10 2.2
2020-Feb-20 06:47 168 5 gusting 10 2.2
2020-Feb-20 06:39 183 4 gusting 8 2.2
2020-Feb-20 06:30 178 4 gusting 7 2.2
2020-Feb-20 06:21 173 3 gusting 7 2.2
2020-Feb-20 06:11 179 3 gusting 7 2.2
2020-Feb-20 06:02 174 4 gusting 6 1.7
2020-Feb-20 05:53 184 3 gusting 6 1.7
2020-Feb-20 05:44 175 3 gusting 7 1.7
2020-Feb-20 05:35 176 3 gusting 8 2.2
2020-Feb-20 05:27 189 3 gusting 7 2.2
2020-Feb-20 05:18 189 2 gusting 6 2.2
2020-Feb-20 05:09 208 2 gusting 5 2.2
2020-Feb-20 04:59 221 2 gusting 6 2.2
2020-Feb-20 04:50 221 2 gusting 5 2.2
2020-Feb-20 04:42 221 2 gusting 5 2.8
2020-Feb-20 04:33 221 2 gusting 4 2.8
2020-Feb-20 04:23 221 2 gusting 5 2.8
2020-Feb-20 04:14 221 2 gusting 5 2.8
2020-Feb-20 04:05 222 2 gusting 5 2.8
2020-Feb-20 03:56 223 2 gusting 5 2.8
2020-Feb-20 03:47 225 3 gusting 6 3.3
2020-Feb-20 03:38 226 4 gusting 9 3.3
2020-Feb-20 03:30 229 4 gusting 8 3.3
2020-Feb-20 03:20 234 4 gusting 8 3.3
2020-Feb-20 03:11 238 5 gusting 10 3.9
2020-Feb-20 03:03 240 6 gusting 10 3.9
2020-Feb-20 02:53 241 6 gusting 11 3.9
2020-Feb-20 02:44 242 6 gusting 9 3.9
2020-Feb-20 02:35 243 6 gusting 10 3.9
2020-Feb-20 02:26 241 6 gusting 9 3.9
2020-Feb-20 02:17 238 5 gusting 10 3.9
2020-Feb-20 02:08 240 4 gusting 7 3.9
2020-Feb-20 01:59 240 3 gusting 7 3.9
2020-Feb-20 01:50 235 4 gusting 6 4.4
2020-Feb-20 01:41 239 4 gusting 7 4.4
2020-Feb-20 01:32 236 4 gusting 9 4.4
2020-Feb-20 01:23 242 5 gusting 9 4.4
2020-Feb-20 01:14 244 6 gusting 11 4.4
2020-Feb-20 01:05 247 6 gusting 9 4.4
2020-Feb-20 00:56 240 6 gusting 8 4.4
2020-Feb-20 00:47 244 6 gusting 9 4.4
2020-Feb-20 00:38 241 6 gusting 10 4.4
2020-Feb-20 00:29 250 6 gusting 9 4.4
2020-Feb-20 00:20 249 6 gusting 10 4.4
2020-Feb-20 00:11 249 6 gusting 10 4.4
2020-Feb-20 00:02 248 6 gusting 9 4.4
2020-Feb-19 23:53 248 5 gusting 12 4.4
2020-Feb-19 23:44 250 6 gusting 9 4.4
2020-Feb-19 23:35 241 4 gusting 8 4.4
2020-Feb-19 23:26 244 5 gusting 9 4.4
2020-Feb-19 23:17 241 4 gusting 8 4.4
2020-Feb-19 23:08 257 3 gusting 6 4.4
2020-Feb-19 22:59 256 4 gusting 7 4.4
2020-Feb-19 22:50 253 6 gusting 12 4.4
2020-Feb-19 22:41 252 6 gusting 9 4.4
2020-Feb-19 22:32 251 6 gusting 11 4.4
2020-Feb-19 22:23 240 3 gusting 9 4.4
2020-Feb-19 22:14 245 4 gusting 9 4.4
2020-Feb-19 22:05 237 4 gusting 7 3.9
2020-Feb-19 21:56 230 3 gusting 7 3.9
2020-Feb-19 21:47 233 3 gusting 6 3.9
2020-Feb-19 21:38 241 3 gusting 6 3.3
2020-Feb-19 21:29 236 2 gusting 4 3.3
2020-Feb-19 21:20 235 2 gusting 3 2.8
2020-Feb-19 21:11 234 1 gusting 3 2.8
2020-Feb-19 21:02 234 1 gusting 3 2.8
2020-Feb-19 20:53 234 1 gusting 4 2.8
2020-Feb-19 20:44 236 1 gusting 4 2.2
2020-Feb-19 20:35 236 1 gusting 3 2.2
2020-Feb-19 20:26 237 1 gusting 6 2.8
2020-Feb-19 20:17 236 3 gusting 6 2.8
2020-Feb-19 20:08 233 3 gusting 5 2.8
2020-Feb-19 19:59 235 4 gusting 6 2.8
2020-Feb-19 19:50 236 4 gusting 6 2.8
2020-Feb-19 19:41 235 4 gusting 6 2.8
2020-Feb-19 19:32 244 5 gusting 8 2.8
2020-Feb-19 19:23 241 4 gusting 7 3.3
2020-Feb-19 19:14 244 5 gusting 9 3.3
2020-Feb-19 19:05 251 6 gusting 8 3.3
2020-Feb-19 18:56 247 6 gusting 11 3.3
2020-Feb-19 18:47 250 6 gusting 10 3.3
2020-Feb-19 18:38 251 7 gusting 10 3.3
2020-Feb-19 18:29 250 6 gusting 9 3.3
2020-Feb-19 18:20 248 6 gusting 9 3.3
2020-Feb-19 18:11 248 6 gusting 9 3.3
2020-Feb-19 18:03 247 6 gusting 10 3.3